METAR Data
IDs: Format: Raw Decoded Include TAF

Data at: 2251 UTC 02 Aug 2021

EGVO 022150Z 18002KT CAVOK 11/10 Q1014 NOSIG RMK BLU BLU